Time;durP1;ratioP1;P1;durP2;ratioP2;P2;SDS_P1;SDS_P2;PMS_P1;PMS_P2;Temp;Humidity;BMP_temperature;BMP_pressure;BME280_temperature;BME280_humidity;BME280_pressure;Samples;Min_cycle;Max_cycle;Signal;HPM_P1;HPM_P2
2021/06/14 00:01:15;;;;;;;;;;;24.70;39.00;;;;;;1593218;73;722;-65
2021/06/14 00:03:16;;;;;;;;;;;24.70;39.00;;;;;;1594563;73;781;-65
2021/06/14 00:05:20;;;;;;;;;;;24.70;39.00;;;;;;1594008;73;755;-66
2021/06/14 00:07:23;;;;;;;;;;;24.70;39.00;;;;;;1586471;73;1516;-65
2021/06/14 00:09:25;;;;;;;;;;;24.70;38.90;;;;;;1588964;73;1103;-65
2021/06/14 00:11:27;;;;;;;;;;;24.70;38.90;;;;;;1594154;73;772;-65
2021/06/14 00:13:29;;;;;;;;;;;24.70;38.90;;;;;;1590427;73;721;-69
2021/06/14 00:15:31;;;;;;;;;;;24.70;39.00;;;;;;1591966;73;755;-65
2021/06/14 00:17:33;;;;;;;;;;;24.70;39.00;;;;;;1594199;73;1923;-65
2021/06/14 00:19:34;;;;;;;;;;;24.70;39.10;;;;;;1597316;73;1160;-66
2021/06/14 00:21:37;;;;;;;;;;;24.70;39.10;;;;;;1597882;73;751;-65
2021/06/14 00:23:38;;;;;;;;;;;24.70;39.00;;;;;;1593777;73;769;-65
2021/06/14 00:25:40;;;;;;;;;;;24.70;38.90;;;;;;1593730;73;768;-64
2021/06/14 00:27:42;;;;;;;;;;;24.70;38.90;;;;;;1596127;73;879;-65
2021/06/14 00:29:44;;;;;;;;;;;24.70;38.90;;;;;;1591071;73;1146;-65
2021/06/14 00:31:46;;;;;;;;;;;24.70;38.90;;;;;;1597755;73;739;-66
2021/06/14 00:33:48;;;;;;;;;;;24.80;38.90;;;;;;1596584;73;782;-66
2021/06/14 00:35:50;;;;;;;;;;;24.70;38.90;;;;;;1597592;73;740;-67
2021/06/14 00:37:52;;;;;;;;;;;24.70;38.90;;;;;;1595757;73;1931;-66
2021/06/14 00:39:53;;;;;;;;;;;24.60;38.80;;;;;;1595344;73;1137;-64
2021/06/14 00:41:55;;;;;;;;;;;24.70;38.90;;;;;;1594057;73;735;-66
2021/06/14 00:43:57;;;;;;;;;;;24.70;38.90;;;;;;1594470;73;739;-66
2021/06/14 00:45:59;;;;;;;;;;;24.70;38.90;;;;;;1593507;73;666;-66
2021/06/14 00:48:02;;;;;;;;;;;24.70;38.90;;;;;;1597872;73;906;-66
2021/06/14 00:50:04;;;;;;;;;;;24.70;38.80;;;;;;1595643;73;1087;-70
2021/06/14 00:52:06;;;;;;;;;;;24.70;38.70;;;;;;1595386;73;766;-68
2021/06/14 00:54:08;;;;;;;;;;;24.70;38.70;;;;;;1593989;73;713;-66
2021/06/14 00:56:11;;;;;;;;;;;24.70;38.60;;;;;;1599898;73;839;-68
2021/06/14 00:58:13;;;;;;;;;;;24.70;38.50;;;;;;1597344;73;714;-66
2021/06/14 01:00:16;;;;;;;;;;;24.70;38.60;;;;;;1593672;73;1142;-65
2021/06/14 01:02:18;;;;;;;;;;;24.70;38.60;;;;;;1593738;73;658;-65
2021/06/14 01:04:19;;;;;;;;;;;24.70;38.50;;;;;;1595697;73;820;-66
2021/06/14 01:06:21;;;;;;;;;;;24.70;38.50;;;;;;1599799;73;811;-64
2021/06/14 01:08:23;;;;;;;;;;;24.70;38.50;;;;;;1595945;73;753;-66
2021/06/14 01:10:25;;;;;;;;;;;24.70;38.50;;;;;;1599794;73;1094;-68
2021/06/14 01:12:28;;;;;;;;;;;24.70;38.60;;;;;;1596204;73;780;-67
2021/06/14 01:14:35;;;;;;;;;;;24.70;38.50;;;;;;1594943;73;680;-65
2021/06/14 01:16:54;;;;;;;;;;;24.70;38.40;;;;;;1590242;73;1930;-65
2021/06/14 01:19:06;;;;;;;;;;;24.70;38.50;;;;;;1598207;73;794;-66
2021/06/14 01:21:12;;;;;;;;;;;24.70;38.50;;;;;;1595897;73;664;-67
2021/06/14 01:23:32;;;;;;;;;;;24.60;38.50;;;;;;1593801;73;724;-65
2021/06/14 01:25:35;;;;;;;;;;;24.70;38.60;;;;;;1593224;73;796;-66
2021/06/14 01:27:43;;;;;;;;;;;24.70;38.60;;;;;;1586204;73;713;-65
2021/06/14 01:29:45;;;;;;;;;;;24.60;38.50;;;;;;1593020;73;1130;-65
2021/06/14 01:31:47;;;;;;;;;;;24.60;38.30;;;;;;1592221;73;794;-67
2021/06/14 01:33:49;;;;;;;;;;;24.60;38.10;;;;;;1597008;73;716;-64
2021/06/14 01:35:52;;;;;;;;;;;24.70;38.40;;;;;;1596536;73;747;-64
2021/06/14 01:37:55;;;;;;;;;;;24.60;38.20;;;;;;1595072;73;1922;-64
2021/06/14 01:39:57;;;;;;;;;;;24.70;38.40;;;;;;1594863;73;1156;-66
2021/06/14 01:41:58;;;;;;;;;;;24.70;38.40;;;;;;1594784;73;691;-67
2021/06/14 01:44:01;;;;;;;;;;;24.70;38.40;;;;;;1586125;73;793;-68
2021/06/14 01:46:04;;;;;;;;;;;24.60;38.30;;;;;;1589680;73;705;-66
2021/06/14 01:48:06;;;;;;;;;;;24.70;38.40;;;;;;1597645;73;722;-65
2021/06/14 01:50:08;;;;;;;;;;;24.70;38.40;;;;;;1605660;73;1167;-67
2021/06/14 01:52:10;;;;;;;;;;;24.70;38.30;;;;;;1598595;73;801;-64
2021/06/14 01:54:12;;;;;;;;;;;24.60;38.10;;;;;;1603097;73;731;-65
2021/06/14 01:56:14;;;;;;;;;;;24.70;38.30;;;;;;1592445;73;799;-66
2021/06/14 01:58:16;;;;;;;;;;;24.80;38.40;;;;;;1593043;73;1936;-68
2021/06/14 02:00:19;;;;;;;;;;;24.60;38.30;;;;;;1603470;73;1059;-67
2021/06/14 02:02:21;;;;;;;;;;;24.70;38.40;;;;;;1586134;73;723;-69
2021/06/14 02:04:23;;;;;;;;;;;24.70;38.40;;;;;;1600776;73;771;-67
2021/06/14 02:06:26;;;;;;;;;;;24.60;37.80;;;;;;1591691;73;727;-66
2021/06/14 02:08:28;;;;;;;;;;;24.70;38.20;;;;;;1596327;73;741;-66
2021/06/14 02:10:30;;;;;;;;;;;24.60;37.80;;;;;;1599094;73;1146;-66
2021/06/14 02:12:32;;;;;;;;;;;24.70;37.80;;;;;;1602237;73;812;-66
2021/06/14 02:14:34;;;;;;;;;;;24.70;37.70;;;;;;1591664;73;726;-65
2021/06/14 02:16:36;;;;;;;;;;;24.60;37.60;;;;;;1594020;73;860;-63
2021/06/14 02:18:38;;;;;;;;;;;24.60;37.50;;;;;;1595331;73;1945;-66
2021/06/14 02:20:41;;;;;;;;;;;24.60;37.30;;;;;;1598717;73;1181;-66
2021/06/14 02:22:43;;;;;;;;;;;24.60;37.40;;;;;;1598064;73;822;-66
2021/06/14 02:24:44;;;;;;;;;;;24.60;37.30;;;;;;1592187;73;778;-65
2021/06/14 02:26:46;;;;;;;;;;;24.60;37.30;;;;;;1586748;73;690;-72
2021/06/14 02:28:48;;;;;;;;;;;24.50;37.60;;;;;;1591768;73;815;-65
2021/06/14 02:30:50;;;;;;;;;;;24.60;37.60;;;;;;1597773;73;1087;-65
2021/06/14 02:32:52;;;;;;;;;;;24.60;37.80;;;;;;1597487;73;710;-65
2021/06/14 02:34:54;;;;;;;;;;;24.60;37.80;;;;;;1599069;73;682;-65
2021/06/14 02:36:56;;;;;;;;;;;24.60;37.60;;;;;;1600161;73;1915;-67
2021/06/14 02:38:59;;;;;;;;;;;24.60;37.50;;;;;;1591346;73;686;-66
2021/06/14 02:41:01;;;;;;;;;;;24.60;37.30;;;;;;1579847;73;1071;-67
2021/06/14 02:43:04;;;;;;;;;;;24.70;37.50;;;;;;1582507;73;818;-66
2021/06/14 02:45:07;;;;;;;;;;;24.60;36.80;;;;;;1584488;73;796;-69
2021/06/14 02:47:09;;;;;;;;;;;24.60;37.00;;;;;;1596365;73;825;-65
2021/06/14 02:49:12;;;;;;;;;;;24.60;37.10;;;;;;1583972;73;1156;-66
2021/06/14 02:51:14;;;;;;;;;;;24.60;37.20;;;;;;1594856;73;732;-66
2021/06/14 02:53:16;;;;;;;;;;;24.50;37.00;;;;;;1610129;73;796;-66
2021/06/14 02:55:19;;;;;;;;;;;24.60;37.30;;;;;;1596323;73;786;-66
2021/06/14 02:57:20;;;;;;;;;;;24.50;37.70;;;;;;1593359;73;1950;-67
2021/06/14 02:59:22;;;;;;;;;;;24.50;37.70;;;;;;1595080;73;1191;-68
2021/06/14 03:01:24;;;;;;;;;;;24.50;36.80;;;;;;1594124;73;709;-69
2021/06/14 03:03:26;;;;;;;;;;;24.40;35.90;;;;;;1595947;73;748;-66
2021/06/14 03:05:28;;;;;;;;;;;24.50;36.50;;;;;;1595693;73;733;-69
2021/06/14 03:07:30;;;;;;;;;;;24.50;35.90;;;;;;1596462;73;678;-67
2021/06/14 03:09:32;;;;;;;;;;;24.50;35.60;;;;;;1594909;73;1089;-68
2021/06/14 03:11:34;;;;;;;;;;;24.50;35.50;;;;;;1593777;73;726;-68
2021/06/14 03:13:36;;;;;;;;;;;24.50;35.30;;;;;;1594348;73;731;-67
2021/06/14 03:15:38;;;;;;;;;;;24.50;35.20;;;;;;1594177;73;801;-69
2021/06/14 03:17:40;;;;;;;;;;;24.40;34.60;;;;;;1599223;73;1946;-67
2021/06/14 03:19:42;;;;;;;;;;;24.50;34.80;;;;;;1595709;73;1161;-67
2021/06/14 03:21:45;;;;;;;;;;;24.40;35.50;;;;;;1596673;73;786;-69
2021/06/14 03:23:49;;;;;;;;;;;24.40;35.20;;;;;;1593059;73;747;-66
2021/06/14 03:25:50;;;;;;;;;;;24.40;34.90;;;;;;1538000;76;954;-71
2021/06/14 03:27:52;;;;;;;;;;;24.40;35.40;;;;;;1533292;76;778;-68
2021/06/14 03:29:54;;;;;;;;;;;24.40;34.90;;;;;;1540305;75;1243;-64
2021/06/14 03:31:56;;;;;;;;;;;24.40;34.90;;;;;;1575435;74;725;-67
2021/06/14 03:33:58;;;;;;;;;;;24.40;34.70;;;;;;1569879;74;739;-67
2021/06/14 03:36:00;;;;;;;;;;;24.40;34.60;;;;;;1572202;74;720;-69
2021/06/14 03:38:02;;;;;;;;;;;24.40;34.70;;;;;;1567044;74;1948;-68
2021/06/14 03:40:04;;;;;;;;;;;24.30;34.50;;;;;;1568410;74;1121;-68
2021/06/14 03:42:07;;;;;;;;;;;24.30;34.70;;;;;;1551512;76;675;-67
2021/06/14 03:44:09;;;;;;;;;;;24.30;34.20;;;;;;1544502;76;792;-68
2021/06/14 03:46:11;;;;;;;;;;;24.30;34.50;;;;;;1571611;74;781;-71
2021/06/14 03:48:12;;;;;;;;;;;24.30;34.70;;;;;;1541435;75;807;-67
2021/06/14 03:50:14;;;;;;;;;;;24.40;34.50;;;;;;1535436;75;1176;-68
2021/06/14 03:52:16;;;;;;;;;;;24.30;34.60;;;;;;1548203;75;796;-68
2021/06/14 03:54:18;;;;;;;;;;;24.30;34.40;;;;;;1565763;74;818;-69
2021/06/14 03:56:20;;;;;;;;;;;24.30;35.30;;;;;;1531806;76;819;-68
2021/06/14 03:58:22;;;;;;;;;;;24.30;35.70;;;;;;1539665;76;1931;-67
2021/06/14 04:00:24;;;;;;;;;;;24.30;35.90;;;;;;1588407;74;1148;-68
2021/06/14 04:02:25;;;;;;;;;;;24.30;35.60;;;;;;1564351;74;707;-68
2021/06/14 04:06:47;;;;;;;;;;;24.40;35.60;;;;;;1564975;74;1618;-66
2021/06/14 04:08:49;;;;;;;;;;;24.30;35.50;;;;;;1565117;74;769;-69
2021/06/14 04:10:51;;;;;;;;;;;24.30;35.90;;;;;;1566994;74;1084;-67
2021/06/14 04:12:53;;;;;;;;;;;24.40;36.10;;;;;;1565312;74;718;-69
2021/06/14 04:14:55;;;;;;;;;;;24.30;36.00;;;;;;1540594;76;716;-68
2021/06/14 04:16:57;;;;;;;;;;;24.40;36.00;;;;;;1532957;76;776;-68
2021/06/14 04:18:58;;;;;;;;;;;24.40;36.20;;;;;;1537059;76;1949;-68
2021/06/14 04:21:00;;;;;;;;;;;24.40;36.10;;;;;;1567475;74;1067;-67
2021/06/14 04:23:02;;;;;;;;;;;24.30;35.70;;;;;;1565877;74;940;-67
2021/06/14 04:25:05;;;;;;;;;;;24.30;36.00;;;;;;1562494;74;742;-71
2021/06/14 04:27:07;;;;;;;;;;;24.30;35.60;;;;;;1540226;75;717;-68
2021/06/14 04:29:09;;;;;;;;;;;24.40;35.60;;;;;;1571589;74;1143;-66
2021/06/14 04:31:11;;;;;;;;;;;24.30;35.30;;;;;;1539648;75;809;-65
2021/06/14 04:33:13;;;;;;;;;;;24.30;35.00;;;;;;1537519;75;689;-68
2021/06/14 04:35:14;;;;;;;;;;;24.30;35.20;;;;;;1537922;76;938;-65
2021/06/14 04:37:16;;;;;;;;;;;24.30;35.50;;;;;;1536714;76;752;-67
2021/06/14 04:39:18;;;;;;;;;;;24.30;35.50;;;;;;1535573;75;1951;-68
2021/06/14 04:41:20;;;;;;;;;;;24.30;35.50;;;;;;1569131;74;785;-66
2021/06/14 04:43:22;;;;;;;;;;;24.30;35.40;;;;;;1565064;74;869;-67
2021/06/14 04:45:24;;;;;;;;;;;24.40;35.90;;;;;;1561993;74;775;-67
2021/06/14 04:47:26;;;;;;;;;;;24.30;36.00;;;;;;1564644;74;741;-69
2021/06/14 04:49:28;;;;;;;;;;;24.30;36.10;;;;;;1560975;74;217850;-56
2021/06/14 04:51:29;;;;;;;;;;;24.20;36.00;;;;;;1527303;73;218939;-71
2021/06/14 04:53:31;;;;;;;;;;;24.30;36.20;;;;;;1494804;78;690;-70
2021/06/14 04:55:33;;;;;;;;;;;24.30;36.30;;;;;;1494623;78;699;-72
2021/06/14 04:57:35;;;;;;;;;;;24.30;36.00;;;;;;1494535;78;750;-71
2021/06/14 04:59:38;;;;;;;;;;;24.40;36.40;;;;;;1528283;76;1941;-70
2021/06/14 05:01:40;;;;;;;;;;;24.30;36.30;;;;;;1532277;76;762;-72
2021/06/14 05:03:42;;;;;;;;;;;24.40;36.50;;;;;;1540696;76;715;-73
2021/06/14 05:05:44;;;;;;;;;;;24.30;36.60;;;;;;1531122;76;730;-72
2021/06/14 05:07:45;;;;;;;;;;;24.40;36.80;;;;;;1531603;76;727;-73
2021/06/14 05:09:47;;;;;;;;;;;24.30;36.80;;;;;;1532929;76;1127;-74
2021/06/14 05:11:49;;;;;;;;;;;24.30;36.80;;;;;;1524859;76;707;-71
2021/06/14 05:13:51;;;;;;;;;;;24.40;36.90;;;;;;1552690;76;678;-71
2021/06/14 05:15:53;;;;;;;;;;;24.30;36.90;;;;;;1552581;76;771;-73
2021/06/14 05:17:55;;;;;;;;;;;24.40;36.90;;;;;;1553627;76;1944;-71
2021/06/14 05:19:57;;;;;;;;;;;24.40;36.80;;;;;;1546132;76;1179;-69
2021/06/14 05:22:01;;;;;;;;;;;24.40;36.70;;;;;;1505488;77;791;-69
2021/06/14 05:24:02;;;;;;;;;;;24.40;36.90;;;;;;1517188;77;1667;-69
2021/06/14 05:26:04;;;;;;;;;;;24.30;36.80;;;;;;1498178;78;727;-66
2021/06/14 05:28:06;;;;;;;;;;;24.30;36.60;;;;;;1497822;78;780;-66
2021/06/14 05:30:09;;;;;;;;;;;24.20;36.20;;;;;;1494127;78;1098;-67
2021/06/14 05:32:10;;;;;;;;;;;24.20;35.50;;;;;;1525008;76;842;-63
2021/06/14 05:34:12;;;;;;;;;;;24.30;35.20;;;;;;1527032;76;831;-67
2021/06/14 05:36:14;;;;;;;;;;;24.30;35.30;;;;;;1510557;77;753;-69
2021/06/14 05:38:16;;;;;;;;;;;24.40;34.70;;;;;;1547097;76;1924;-67
2021/06/14 05:40:18;;;;;;;;;;;24.50;34.60;;;;;;1523272;76;1088;-67
2021/06/14 05:42:20;;;;;;;;;;;24.30;34.20;;;;;;1538048;76;788;-68
2021/06/14 05:44:22;;;;;;;;;;;24.20;34.80;;;;;;1505799;77;820;-64
2021/06/14 05:46:25;;;;;;;;;;;24.30;35.00;;;;;;1533906;76;713;-66
2021/06/14 05:48:26;;;;;;;;;;;24.40;34.90;;;;;;1540879;76;826;-68
2021/06/14 05:50:28;;;;;;;;;;;24.40;34.80;;;;;;1539410;76;1154;-66
2021/06/14 05:52:30;;;;;;;;;;;24.50;34.60;;;;;;1558241;76;704;-68
2021/06/14 05:54:32;;;;;;;;;;;24.30;34.60;;;;;;1484182;77;856;-67
2021/06/14 05:56:34;;;;;;;;;;;24.40;34.70;;;;;;1537176;76;808;-67
2021/06/14 05:58:36;;;;;;;;;;;24.40;34.70;;;;;;1539049;76;1937;-69
2021/06/14 06:00:38;;;;;;;;;;;24.40;34.80;;;;;;1521272;76;1268;-68
2021/06/14 06:02:40;;;;;;;;;;;24.40;34.70;;;;;;1526856;76;717;-67
2021/06/14 06:04:42;;;;;;;;;;;24.50;34.40;;;;;;1527923;76;790;-68
2021/06/14 06:06:44;;;;;;;;;;;24.40;34.00;;;;;;1523691;76;756;-67
2021/06/14 06:08:46;;;;;;;;;;;24.40;34.60;;;;;;1544126;76;799;-67
2021/06/14 06:10:47;;;;;;;;;;;24.40;34.10;;;;;;1535069;76;1148;-68
2021/06/14 06:12:49;;;;;;;;;;;24.40;34.40;;;;;;1505921;77;714;-67
2021/06/14 06:14:51;;;;;;;;;;;24.60;34.40;;;;;;1505561;77;746;-66
2021/06/14 06:16:53;;;;;;;;;;;24.60;34.50;;;;;;1530221;76;727;-67
2021/06/14 06:18:55;;;;;;;;;;;24.60;34.10;;;;;;1533753;76;1933;-69
2021/06/14 06:20:57;;;;;;;;;;;24.70;34.50;;;;;;1545260;76;1167;-66
2021/06/14 06:22:59;;;;;;;;;;;24.70;34.30;;;;;;1526635;76;815;-66
2021/06/14 06:25:00;;;;;;;;;;;24.80;34.40;;;;;;1509196;77;736;-66
2021/06/14 06:27:02;;;;;;;;;;;24.80;34.40;;;;;;1515403;77;800;-67
2021/06/14 06:29:04;;;;;;;;;;;24.80;34.40;;;;;;1537503;76;778;-66
2021/06/14 06:31:08;;;;;;;;;;;24.70;34.30;;;;;;1536025;76;1141;-66
2021/06/14 06:33:10;;;;;;;;;;;24.70;34.00;;;;;;1534141;76;803;-67
2021/06/14 06:35:12;;;;;;;;;;;24.70;34.40;;;;;;1537310;76;821;-65
2021/06/14 06:37:14;;;;;;;;;;;24.60;34.00;;;;;;1540616;76;824;-66
2021/06/14 06:39:16;;;;;;;;;;;24.50;34.60;;;;;;1539225;76;1940;-66
2021/06/14 06:41:17;;;;;;;;;;;24.60;34.60;;;;;;1548229;76;1102;-66
2021/06/14 06:43:19;;;;;;;;;;;24.70;34.60;;;;;;1541042;76;781;-64
2021/06/14 06:45:21;;;;;;;;;;;24.60;34.30;;;;;;1534614;76;760;-67
2021/06/14 06:47:23;;;;;;;;;;;24.70;34.40;;;;;;1538011;76;674;-68
2021/06/14 06:49:25;;;;;;;;;;;24.60;34.10;;;;;;1533989;76;726;-67
2021/06/14 06:51:27;;;;;;;;;;;24.60;34.30;;;;;;1535537;76;1093;-68
2021/06/14 06:53:29;;;;;;;;;;;24.50;34.70;;;;;;1538876;76;736;-69
2021/06/14 06:55:31;;;;;;;;;;;24.50;34.60;;;;;;1540493;76;809;-66
2021/06/14 06:57:33;;;;;;;;;;;24.60;34.60;;;;;;1539884;76;764;-66
2021/06/14 06:59:35;;;;;;;;;;;24.60;34.40;;;;;;1541841;76;1928;-67
2021/06/14 07:01:37;;;;;;;;;;;24.50;34.40;;;;;;1544358;76;789;-66
2021/06/14 07:03:41;;;;;;;;;;;24.50;34.90;;;;;;1541489;76;808;-67
2021/06/14 07:05:43;;;;;;;;;;;24.50;34.80;;;;;;1546120;76;1664;-67
2021/06/14 07:07:44;;;;;;;;;;;24.40;34.60;;;;;;1545430;76;779;-63
2021/06/14 07:09:46;;;;;;;;;;;24.30;35.00;;;;;;1553732;76;1140;-70
2021/06/14 07:11:48;;;;;;;;;;;24.40;34.70;;;;;;1547866;76;718;-67
2021/06/14 07:13:50;;;;;;;;;;;24.40;34.50;;;;;;1545286;76;800;-67
2021/06/14 07:15:52;;;;;;;;;;;24.50;34.70;;;;;;1550081;76;774;-66
2021/06/14 07:17:54;;;;;;;;;;;24.30;34.60;;;;;;1544204;76;727;-65
2021/06/14 07:19:56;;;;;;;;;;;24.50;34.60;;;;;;1546753;76;1923;-67
2021/06/14 07:21:57;;;;;;;;;;;24.50;34.70;;;;;;1546925;76;769;-66
2021/06/14 07:24:00;;;;;;;;;;;24.40;34.40;;;;;;1539686;76;729;-66
2021/06/14 07:26:02;;;;;;;;;;;24.40;34.70;;;;;;1555907;76;774;-62
2021/06/14 07:28:04;;;;;;;;;;;24.50;34.40;;;;;;1553329;76;703;-65
2021/06/14 07:30:06;;;;;;;;;;;24.40;34.20;;;;;;1545113;75;1186;-65
2021/06/14 07:32:08;;;;;;;;;;;24.50;34.20;;;;;;1540048;75;824;-66
2021/06/14 07:34:10;;;;;;;;;;;24.50;34.10;;;;;;1548655;76;714;-64
2021/06/14 07:36:12;;;;;;;;;;;24.50;33.60;;;;;;1544459;76;729;-67
2021/06/14 07:38:15;;;;;;;;;;;24.50;33.90;;;;;;1549579;76;615;-66
2021/06/14 07:40:17;;;;;;;;;;;24.60;34.00;;;;;;1536916;76;1910;-66
2021/06/14 07:42:19;;;;;;;;;;;24.60;33.80;;;;;;1540210;76;766;-65
2021/06/14 07:44:21;;;;;;;;;;;24.50;33.80;;;;;;1555822;76;776;-65
2021/06/14 07:46:23;;;;;;;;;;;24.50;34.00;;;;;;1539699;76;790;-66
2021/06/14 07:48:24;;;;;;;;;;;24.60;33.70;;;;;;1536482;76;755;-65
2021/06/14 07:50:26;;;;;;;;;;;24.50;33.90;;;;;;1540238;76;1158;-67
2021/06/14 07:52:28;;;;;;;;;;;24.60;33.80;;;;;;1539104;76;774;-65
2021/06/14 07:54:30;;;;;;;;;;;24.50;33.60;;;;;;1539804;76;797;-61
2021/06/14 07:56:33;;;;;;;;;;;24.50;33.50;;;;;;1560195;76;786;-65
2021/06/14 07:58:35;;;;;;;;;;;24.50;33.60;;;;;;1540755;76;827;-66
2021/06/14 08:00:39;;;;;;;;;;;24.50;33.70;;;;;;1540338;76;1952;-66
2021/06/14 08:02:40;;;;;;;;;;;24.50;33.60;;;;;;1534321;76;2052;-65
2021/06/14 08:04:42;;;;;;;;;;;24.50;33.80;;;;;;1542747;76;844;-66
2021/06/14 08:06:44;;;;;;;;;;;24.50;34.10;;;;;;1538047;76;917;-66
2021/06/14 08:08:46;;;;;;;;;;;24.50;34.10;;;;;;1538824;76;782;-66
2021/06/14 08:10:50;;;;;;;;;;;24.50;33.90;;;;;;1541968;76;1190;-65
2021/06/14 08:12:52;;;;;;;;;;;24.50;33.50;;;;;;1539853;76;718;-66
2021/06/14 08:14:54;;;;;;;;;;;24.50;33.90;;;;;;1543696;76;750;-66
2021/06/14 08:16:56;;;;;;;;;;;24.50;33.70;;;;;;1540843;76;782;-67
2021/06/14 08:25:12;;;;;;;;;;;24.70;33.90;;;;;;1538694;75;800;-66
2021/06/14 08:27:14;;;;;;;;;;;24.60;33.40;;;;;;1542677;76;940;-65
2021/06/14 08:29:16;;;;;;;;;;;24.60;33.50;;;;;;1543154;76;783;-63
2021/06/14 08:31:18;;;;;;;;;;;24.60;33.30;;;;;;1541231;76;1144;-65
2021/06/14 08:33:20;;;;;;;;;;;24.50;33.60;;;;;;1543897;76;793;-65
2021/06/14 08:35:22;;;;;;;;;;;24.50;33.60;;;;;;1542026;76;802;-65
2021/06/14 08:37:24;;;;;;;;;;;24.40;33.50;;;;;;1543987;76;655;-65
2021/06/14 08:39:26;;;;;;;;;;;24.40;33.60;;;;;;1547109;76;1948;-66
2021/06/14 08:41:28;;;;;;;;;;;24.50;33.60;;;;;;1542054;76;754;-66
2021/06/14 08:43:30;;;;;;;;;;;24.50;33.20;;;;;;1540417;76;724;-64
2021/06/14 08:45:36;;;;;;;;;;;24.50;33.40;;;;;;1544034;76;735;-68
2021/06/14 08:47:38;;;;;;;;;;;24.50;32.80;;;;;;1541671;76;708;-66
2021/06/14 08:49:41;;;;;;;;;;;24.50;33.10;;;;;;1529514;76;1131;-65
2021/06/14 08:51:42;;;;;;;;;;;24.50;33.30;;;;;;1506580;77;774;-65
2021/06/14 08:53:51;;;;;;;;;;;24.60;33.20;;;;;;1506304;77;774;-67
2021/06/14 08:55:49;;;;;;;;;;;24.60;33.30;;;;;;1510912;77;1633;-68
2021/06/14 08:57:51;;;;;;;;;;;24.60;33.30;;;;;;1530513;76;724;-65
2021/06/14 08:59:53;;;;;;;;;;;24.60;33.40;;;;;;1530034;76;1937;-66
2021/06/14 09:01:55;;;;;;;;;;;24.60;33.60;;;;;;1530873;76;759;-65
2021/06/14 09:03:56;;;;;;;;;;;24.60;33.20;;;;;;1526541;76;716;-65
2021/06/14 09:05:58;;;;;;;;;;;24.60;33.20;;;;;;1531081;76;794;-65
2021/06/14 09:08:02;;;;;;;;;;;24.60;32.70;;;;;;1533601;76;732;-62
2021/06/14 09:10:05;;;;;;;;;;;24.60;32.90;;;;;;1528807;76;1956;-66
2021/06/14 09:12:07;;;;;;;;;;;24.50;32.80;;;;;;1534406;76;749;-69
2021/06/14 09:14:16;;;;;;;;;;;24.50;32.90;;;;;;1532066;76;717;-66
2021/06/14 09:16:18;;;;;;;;;;;24.50;33.30;;;;;;1526477;76;1814;-65
2021/06/14 09:18:21;;;;;;;;;;;24.50;33.50;;;;;;1531852;76;736;-65
2021/06/14 09:20:24;;;;;;;;;;;24.50;33.50;;;;;;1538604;76;1924;-65
2021/06/14 09:22:26;;;;;;;;;;;24.50;33.80;;;;;;1536748;76;720;-67
2021/06/14 09:24:28;;;;;;;;;;;24.50;33.70;;;;;;1531899;76;810;-65
2021/06/14 09:26:34;;;;;;;;;;;24.40;33.80;;;;;;1532999;76;778;-67
2021/06/14 09:28:36;;;;;;;;;;;24.40;34.10;;;;;;1538460;76;731;-65
2021/06/14 09:30:37;;;;;;;;;;;24.40;34.30;;;;;;1511531;77;1221;-64
2021/06/14 09:32:56;;;;;;;;;;;24.50;34.40;;;;;;1532476;76;896;-65
2021/06/14 09:34:58;;;;;;;;;;;24.50;34.20;;;;;;1509703;77;715;-65
2021/06/14 09:37:01;;;;;;;;;;;24.50;34.40;;;;;;1508067;77;759;-69
2021/06/14 09:39:14;;;;;;;;;;;24.40;33.90;;;;;;1544204;76;664;-68
2021/06/14 09:41:17;;;;;;;;;;;24.40;34.00;;;;;;1545845;76;1900;-67
2021/06/14 09:43:23;;;;;;;;;;;24.50;34.40;;;;;;1539297;76;794;-67
2021/06/14 09:45:25;;;;;;;;;;;24.40;34.40;;;;;;1538335;76;733;-65
2021/06/14 09:47:28;;;;;;;;;;;24.50;34.40;;;;;;1540638;76;733;-66
2021/06/14 09:49:30;;;;;;;;;;;24.50;34.40;;;;;;1553970;76;1366;-66
2021/06/14 09:51:34;;;;;;;;;;;24.40;34.60;;;;;;1541748;76;614;-67
2021/06/14 09:53:43;;;;;;;;;;;24.40;34.30;;;;;;1546079;76;796;-66
2021/06/14 09:55:45;;;;;;;;;;;24.40;34.30;;;;;;1534667;76;1839;-67
2021/06/14 09:57:47;;;;;;;;;;;24.30;34.50;;;;;;1537963;76;728;-66
2021/06/14 09:59:49;;;;;;;;;;;24.40;34.40;;;;;;1536840;76;1957;-66
2021/06/14 10:01:51;;;;;;;;;;;24.40;34.60;;;;;;1535226;76;724;-65
2021/06/14 10:03:53;;;;;;;;;;;24.40;34.30;;;;;;1541560;76;649;-70
2021/06/14 10:05:55;;;;;;;;;;;24.30;34.40;;;;;;1539404;76;782;-65
2021/06/14 10:07:59;;;;;;;;;;;24.40;34.20;;;;;;1529128;76;741;-65
2021/06/14 10:10:00;;;;;;;;;;;24.40;34.10;;;;;;1531684;76;1141;-63
2021/06/14 10:12:02;;;;;;;;;;;24.40;34.20;;;;;;1530763;76;733;-64
2021/06/14 10:14:11;;;;;;;;;;;24.40;34.00;;;;;;1532905;76;727;-65
2021/06/14 10:16:18;;;;;;;;;;;24.40;34.20;;;;;;1537543;76;721;-67
2021/06/14 10:18:20;;;;;;;;;;;24.40;33.80;;;;;;1526987;76;1654;-66
2021/06/14 10:20:24;;;;;;;;;;;24.30;33.80;;;;;;1527622;76;1959;-66
2021/06/14 10:22:26;;;;;;;;;;;24.40;34.10;;;;;;1534922;76;1058;-65
2021/06/14 10:24:28;;;;;;;;;;;24.40;34.10;;;;;;1530582;76;785;-67
2021/06/14 10:26:30;;;;;;;;;;;24.40;34.30;;;;;;1546301;76;772;-68
2021/06/14 10:28:31;;;;;;;;;;;24.40;34.00;;;;;;1540338;76;838;-65
2021/06/14 10:30:33;;;;;;;;;;;24.30;33.90;;;;;;1524736;76;1069;-65
2021/06/14 10:32:36;;;;;;;;;;;24.20;33.60;;;;;;1543993;76;785;-65
2021/06/14 10:34:37;;;;;;;;;;;24.20;33.30;;;;;;1533832;76;785;-65
2021/06/14 10:36:40;;;;;;;;;;;24.20;33.80;;;;;;1530286;76;800;-65
2021/06/14 10:38:43;;;;;;;;;;;24.10;33.60;;;;;;1516139;77;1416;-65
2021/06/14 10:40:45;;;;;;;;;;;24.20;34.00;;;;;;1530235;76;1930;-66
2021/06/14 10:42:47;;;;;;;;;;;24.10;33.90;;;;;;1530995;76;821;-65
2021/06/14 10:44:49;;;;;;;;;;;24.20;33.80;;;;;;1531829;76;778;-65
2021/06/14 10:46:51;;;;;;;;;;;24.10;34.20;;;;;;1530833;76;756;-67
2021/06/14 10:48:54;;;;;;;;;;;24.20;34.20;;;;;;1527183;76;726;-64
2021/06/14 10:50:57;;;;;;;;;;;24.20;33.90;;;;;;1561553;72;221871;-64
2021/06/14 10:52:59;;;;;;;;;;;24.10;33.90;;;;;;1590201;73;763;-65
2021/06/14 10:55:02;;;;;;;;;;;24.00;33.80;;;;;;1587815;73;813;-65
2021/06/14 10:57:06;;;;;;;;;;;24.10;34.00;;;;;;1590891;73;1872;-65
2021/06/14 10:59:09;;;;;;;;;;;24.10;33.40;;;;;;1582054;73;720;-65
2021/06/14 11:01:15;;;;;;;;;;;24.20;33.70;;;;;;1577466;73;2213;-64
2021/06/14 11:03:15;;;;;;;;;;;24.20;33.40;;;;;;1573439;74;1688;-64
2021/06/14 11:05:18;;;;;;;;;;;24.30;33.70;;;;;;1561412;74;762;-69
2021/06/14 11:07:22;;;;;;;;;;;24.30;33.50;;;;;;1560778;75;1772;-66
2021/06/14 11:09:24;;;;;;;;;;;24.20;33.50;;;;;;1562797;74;1882;-65
2021/06/14 11:11:26;;;;;;;;;;;24.20;34.00;;;;;;1559688;74;1130;-65
2021/06/14 11:13:28;;;;;;;;;;;24.10;34.00;;;;;;1559420;75;811;-65
2021/06/14 11:15:32;;;;;;;;;;;24.10;33.90;;;;;;1567331;75;786;-64
2021/06/14 11:17:36;;;;;;;;;;;24.20;33.80;;;;;;1565863;75;821;-65
2021/06/14 11:19:38;;;;;;;;;;;24.20;34.00;;;;;;1561849;74;1093;-62
2021/06/14 11:21:40;;;;;;;;;;;24.20;33.90;;;;;;1565101;74;1939;-64
2021/06/14 11:23:42;;;;;;;;;;;24.00;33.40;;;;;;1559768;75;781;-65
2021/06/14 11:25:44;;;;;;;;;;;24.00;34.00;;;;;;1565264;75;807;-63
2021/06/14 11:27:46;;;;;;;;;;;23.90;34.10;;;;;;1564540;74;843;-65
2021/06/14 11:29:49;;;;;;;;;;;24.00;34.00;;;;;;1574804;75;732;-64
2021/06/14 11:31:55;;;;;;;;;;;24.00;34.10;;;;;;1569947;75;762;-64
2021/06/14 11:34:01;;;;;;;;;;;24.00;33.90;;;;;;1564125;75;793;-64
2021/06/14 11:36:01;;;;;;;;;;;24.10;33.90;;;;;;1568227;75;1628;-65
2021/06/14 11:38:03;;;;;;;;;;;24.10;34.00;;;;;;1567263;75;671;-67
2021/06/14 11:40:06;;;;;;;;;;;24.10;34.00;;;;;;1563907;75;1958;-64
2021/06/14 11:42:15;;;;;;;;;;;24.00;33.90;;;;;;1566098;74;805;-64
2021/06/14 11:44:25;;;;;;;;;;;23.90;34.20;;;;;;1558782;75;834;-64
2021/06/14 11:46:27;;;;;;;;;;;23.90;34.40;;;;;;1556738;75;682;-64
2021/06/14 11:48:33;;;;;;;;;;;24.00;34.70;;;;;;1571904;75;779;-64
2021/06/14 11:50:33;;;;;;;;;;;23.90;34.70;;;;;;1562735;75;1465;-64
2021/06/14 11:52:36;;;;;;;;;;;23.90;34.40;;;;;;1574048;75;761;-65
2021/06/14 11:54:37;;;;;;;;;;;24.00;34.30;;;;;;1561582;74;860;-64
2021/06/14 11:56:39;;;;;;;;;;;24.00;34.60;;;;;;1557447;74;773;-65
2021/06/14 11:58:42;;;;;;;;;;;24.10;34.70;;;;;;1556972;75;771;-64
2021/06/14 12:00:45;;;;;;;;;;;24.00;34.20;;;;;;1565831;74;1927;-63
2021/06/14 12:02:47;;;;;;;;;;;24.00;34.20;;;;;;1561212;75;790;-65
2021/06/14 12:04:52;;;;;;;;;;;23.90;34.60;;;;;;1565465;75;778;-65
2021/06/14 12:06:56;;;;;;;;;;;24.00;34.80;;;;;;1554764;75;673;-66
2021/06/14 12:08:59;;;;;;;;;;;24.00;34.70;;;;;;1569297;75;2094;-65
2021/06/14 12:11:01;;;;;;;;;;;24.00;34.70;;;;;;1556844;75;1693;-64
2021/06/14 12:13:05;;;;;;;;;;;23.90;34.50;;;;;;1540250;76;1209;-64
2021/06/14 12:15:07;;;;;;;;;;;23.90;34.80;;;;;;1576859;75;1819;-65
2021/06/14 12:17:09;;;;;;;;;;;23.90;34.40;;;;;;1567184;75;685;-65
2021/06/14 12:19:11;;;;;;;;;;;23.90;34.40;;;;;;1564286;74;658;-61